sensor_id;sensor_type;location;lat;lon;timestamp;pressure;altitude;pressure_sealevel;temperature;humidity
53889;BME280;41337;51.400;-2.342;2022-12-07T00:00:38;102048.97;;;1.20;100.00
53889;BME280;41337;51.400;-2.342;2022-12-07T00:05:38;102044.94;;;1.10;100.00
53889;BME280;41337;51.400;-2.342;2022-12-07T00:10:39;102048.63;;;1.00;100.00
53889;BME280;41337;51.400;-2.342;2022-12-07T00:15:40;102057.44;;;0.90;100.00
53889;BME280;41337;51.400;-2.342;2022-12-07T00:20:41;102040.88;;;0.85;100.00
53889;BME280;41337;51.400;-2.342;2022-12-07T00:25:42;102036.97;;;0.77;100.00
53889;BME280;41337;51.400;-2.342;2022-12-07T00:30:42;102027.50;;;0.76;100.00
53889;BME280;41337;51.400;-2.342;2022-12-07T00:35:43;102021.78;;;0.67;100.00
53889;BME280;41337;51.400;-2.342;2022-12-07T00:40:44;102018.75;;;0.59;100.00
53889;BME280;41337;51.400;-2.342;2022-12-07T00:45:54;102014.13;;;0.53;100.00
53889;BME280;41337;51.400;-2.342;2022-12-07T00:50:55;102012.16;;;0.49;100.00
53889;BME280;41337;51.400;-2.342;2022-12-07T00:55:56;102014.34;;;0.43;100.00
53889;BME280;41337;51.400;-2.342;2022-12-07T01:01:03;102007.84;;;0.35;100.00
53889;BME280;41337;51.400;-2.342;2022-12-07T01:06:05;102004.00;;;0.28;100.00
53889;BME280;41337;51.400;-2.342;2022-12-07T01:11:07;102008.16;;;0.26;100.00
53889;BME280;41337;51.400;-2.342;2022-12-07T01:16:15;102009.41;;;0.20;100.00
53889;BME280;41337;51.400;-2.342;2022-12-07T01:21:20;101995.34;;;0.13;100.00
53889;BME280;41337;51.400;-2.342;2022-12-07T01:26:24;101996.72;;;0.08;100.00
53889;BME280;41337;51.400;-2.342;2022-12-07T01:31:26;101993.84;;;0.03;100.00
53889;BME280;41337;51.400;-2.342;2022-12-07T01:36:45;101995.25;;;-0.02;100.00
53889;BME280;41337;51.400;-2.342;2022-12-07T01:41:46;101985.72;;;-0.05;100.00
53889;BME280;41337;51.400;-2.342;2022-12-07T01:47:03;101980.19;;;-0.11;100.00
53889;BME280;41337;51.400;-2.342;2022-12-07T01:52:17;101978.09;;;-0.16;100.00
53889;BME280;41337;51.400;-2.342;2022-12-07T01:57:24;101972.88;;;-0.18;100.00
53889;BME280;41337;51.400;-2.342;2022-12-07T02:02:27;101971.78;;;-0.22;100.00
53889;BME280;41337;51.400;-2.342;2022-12-07T02:07:34;101966.47;;;-0.25;100.00
53889;BME280;41337;51.400;-2.342;2022-12-07T02:12:36;101972.19;;;-0.29;100.00
53889;BME280;41337;51.400;-2.342;2022-12-07T02:29:07;101960.97;;;-0.31;100.00
53889;BME280;41337;51.400;-2.342;2022-12-07T02:34:26;101950.13;;;-0.27;100.00
53889;BME280;41337;51.400;-2.342;2022-12-07T02:39:32;101941.25;;;-0.19;100.00
53889;BME280;41337;51.400;-2.342;2022-12-07T02:44:38;101929.16;;;-0.08;100.00
53889;BME280;41337;51.400;-2.342;2022-12-07T02:49:40;101929.63;;;0.00;100.00
53889;BME280;41337;51.400;-2.342;2022-12-07T02:54:41;101920.38;;;0.02;100.00
53889;BME280;41337;51.400;-2.342;2022-12-07T03:10:59;101945.41;;;-0.07;100.00
53889;BME280;41337;51.400;-2.342;2022-12-07T03:21:24;101936.13;;;-0.19;100.00
53889;BME280;41337;51.400;-2.342;2022-12-07T03:26:35;101937.72;;;-0.21;100.00
53889;BME280;41337;51.400;-2.342;2022-12-07T03:31:44;101937.72;;;-0.21;100.00
53889;BME280;41337;51.400;-2.342;2022-12-07T03:36:53;101931.63;;;-0.23;100.00
53889;BME280;41337;51.400;-2.342;2022-12-07T03:41:57;101931.53;;;-0.24;100.00
53889;BME280;41337;51.400;-2.342;2022-12-07T03:47:26;101930.34;;;-0.29;100.00
53889;BME280;41337;51.400;-2.342;2022-12-07T03:52:43;101928.97;;;-0.38;100.00
53889;BME280;41337;51.400;-2.342;2022-12-07T03:57:51;101925.41;;;-0.40;100.00
53889;BME280;41337;51.400;-2.342;2022-12-07T04:02:55;101929.44;;;-0.43;100.00
53889;BME280;41337;51.400;-2.342;2022-12-07T04:08:02;101922.63;;;-0.43;100.00
53889;BME280;41337;51.400;-2.342;2022-12-07T04:13:03;101910.84;;;-0.41;100.00
53889;BME280;41337;51.400;-2.342;2022-12-07T04:18:04;101912.69;;;-0.38;100.00
53889;BME280;41337;51.400;-2.342;2022-12-07T04:23:05;101909.16;;;-0.40;100.00
53889;BME280;41337;51.400;-2.342;2022-12-07T04:28:06;101913.97;;;-0.45;100.00
53889;BME280;41337;51.400;-2.342;2022-12-07T04:33:06;101907.88;;;-0.47;100.00
53889;BME280;41337;51.400;-2.342;2022-12-07T04:38:09;101905.22;;;-0.48;100.00
53889;BME280;41337;51.400;-2.342;2022-12-07T04:43:10;101906.81;;;-0.50;100.00
53889;BME280;41337;51.400;-2.342;2022-12-07T04:48:10;101897.94;;;-0.56;100.00
53889;BME280;41337;51.400;-2.342;2022-12-07T04:53:11;101900.09;;;-0.62;100.00
53889;BME280;41337;51.400;-2.342;2022-12-07T04:58:13;101912.47;;;-0.68;100.00
53889;BME280;41337;51.400;-2.342;2022-12-07T05:03:19;101911.88;;;-0.77;100.00
53889;BME280;41337;51.400;-2.342;2022-12-07T05:08:20;101920.91;;;-0.82;100.00
53889;BME280;41337;51.400;-2.342;2022-12-07T05:13:21;101909.91;;;-0.81;100.00
53889;BME280;41337;51.400;-2.342;2022-12-07T05:18:22;101901.25;;;-0.83;100.00
53889;BME280;41337;51.400;-2.342;2022-12-07T05:23:22;101903.72;;;-0.85;100.00
53889;BME280;41337;51.400;-2.342;2022-12-07T05:28:24;101908.63;;;-0.88;100.00
53889;BME280;41337;51.400;-2.342;2022-12-07T05:33:24;101910.09;;;-0.91;100.00
53889;BME280;41337;51.400;-2.342;2022-12-07T05:38:25;101899.75;;;-0.93;100.00
53889;BME280;41337;51.400;-2.342;2022-12-07T05:43:26;101896.50;;;-0.90;100.00
53889;BME280;41337;51.400;-2.342;2022-12-07T05:48:27;101893.94;;;-0.90;100.00
53889;BME280;41337;51.400;-2.342;2022-12-07T05:53:28;101890.41;;;-0.93;100.00
53889;BME280;41337;51.400;-2.342;2022-12-07T05:58:29;101890.00;;;-0.99;100.00
53889;BME280;41337;51.400;-2.342;2022-12-07T06:03:48;101880.91;;;-1.07;100.00
53889;BME280;41337;51.400;-2.342;2022-12-07T06:08:48;101892.72;;;-1.09;100.00
53889;BME280;41337;51.400;-2.342;2022-12-07T06:13:49;101886.53;;;-1.13;100.00
53889;BME280;41337;51.400;-2.342;2022-12-07T06:18:50;101883.88;;;-1.14;100.00
53889;BME280;41337;51.400;-2.342;2022-12-07T06:23:51;101886.22;;;-1.17;100.00
53889;BME280;41337;51.400;-2.342;2022-12-07T06:28:52;101883.34;;;-1.22;100.00
53889;BME280;41337;51.400;-2.342;2022-12-07T06:34:00;101887.47;;;-1.24;100.00
53889;BME280;41337;51.400;-2.342;2022-12-07T06:39:01;101888.94;;;-1.27;100.00
53889;BME280;41337;51.400;-2.342;2022-12-07T06:44:04;101890.81;;;-1.25;100.00
53889;BME280;41337;51.400;-2.342;2022-12-07T06:49:05;101885.03;;;-1.22;100.00
53889;BME280;41337;51.400;-2.342;2022-12-07T06:54:14;101884.22;;;-1.21;100.00
53889;BME280;41337;51.400;-2.342;2022-12-07T06:59:15;101893.47;;;-1.23;100.00
53889;BME280;41337;51.400;-2.342;2022-12-07T07:04:16;101898.38;;;-1.26;100.00
53889;BME280;41337;51.400;-2.342;2022-12-07T07:09:16;101896.63;;;-1.27;100.00
53889;BME280;41337;51.400;-2.342;2022-12-07T07:14:17;101899.25;;;-1.26;100.00
53889;BME280;41337;51.400;-2.342;2022-12-07T07:19:19;101890.69;;;-1.26;100.00
53889;BME280;41337;51.400;-2.342;2022-12-07T07:24:27;101899.34;;;-1.24;100.00
53889;BME280;41337;51.400;-2.342;2022-12-07T07:29:27;101909.41;;;-1.27;100.00
53889;BME280;41337;51.400;-2.342;2022-12-07T07:34:28;101909.19;;;-1.31;100.00
53889;BME280;41337;51.400;-2.342;2022-12-07T07:39:29;101913.06;;;-1.36;100.00
53889;BME280;41337;51.400;-2.342;2022-12-07T07:44:30;101908.66;;;-1.38;100.00
53889;BME280;41337;51.400;-2.342;2022-12-07T07:49:31;101905.88;;;-1.41;100.00
53889;BME280;41337;51.400;-2.342;2022-12-07T07:54:32;101908.94;;;-1.47;100.00
53889;BME280;41337;51.400;-2.342;2022-12-07T07:59:33;101912.25;;;-1.48;100.00
53889;BME280;41337;51.400;-2.342;2022-12-07T08:04:34;101916.69;;;-1.45;100.00
53889;BME280;41337;51.400;-2.342;2022-12-07T08:09:37;101924.16;;;-1.49;100.00
53889;BME280;41337;51.400;-2.342;2022-12-07T08:14:41;101924.25;;;-1.47;100.00
53889;BME280;41337;51.400;-2.342;2022-12-07T08:19:42;101925.03;;;-1.48;100.00
53889;BME280;41337;51.400;-2.342;2022-12-07T08:24:43;101928.34;;;-1.49;100.00
53889;BME280;41337;51.400;-2.342;2022-12-07T08:29:43;101937.72;;;-1.50;100.00
53889;BME280;41337;51.400;-2.342;2022-12-07T08:34:44;101932.03;;;-1.45;100.00
53889;BME280;41337;51.400;-2.342;2022-12-07T08:39:45;101936.56;;;-1.41;100.00
53889;BME280;41337;51.400;-2.342;2022-12-07T08:44:46;101926.66;;;-1.37;100.00
53889;BME280;41337;51.400;-2.342;2022-12-07T08:49:49;101925.31;;;-1.32;100.00
53889;BME280;41337;51.400;-2.342;2022-12-07T08:54:51;101924.03;;;-1.25;100.00
53889;BME280;41337;51.400;-2.342;2022-12-07T08:59:52;101923.59;;;-1.19;100.00
53889;BME280;41337;51.400;-2.342;2022-12-07T09:04:59;101931.88;;;-1.10;100.00
53889;BME280;41337;51.400;-2.342;2022-12-07T09:10:00;101934.06;;;-1.03;100.00
53889;BME280;41337;51.400;-2.342;2022-12-07T09:15:01;101940.19;;;-0.87;100.00
53889;BME280;41337;51.400;-2.342;2022-12-07T09:20:03;101931.28;;;-0.54;100.00
53889;BME280;41337;51.400;-2.342;2022-12-07T09:25:05;101916.63;;;-0.30;100.00
53889;BME280;41337;51.400;-2.342;2022-12-07T09:30:12;101923.22;;;-0.20;100.00
53889;BME280;41337;51.400;-2.342;2022-12-07T09:35:13;101926.28;;;-0.12;100.00
53889;BME280;41337;51.400;-2.342;2022-12-07T09:40:16;101928.53;;;-0.04;100.00
53889;BME280;41337;51.400;-2.342;2022-12-07T09:50:52;101939.66;;;0.10;100.00
53889;BME280;41337;51.400;-2.342;2022-12-07T09:55:55;101926.81;;;0.24;100.00
53889;BME280;41337;51.400;-2.342;2022-12-07T10:01:13;101924.41;;;0.40;100.00
53889;BME280;41337;51.400;-2.342;2022-12-07T10:06:14;101935.13;;;0.76;100.00
53889;BME280;41337;51.400;-2.342;2022-12-07T10:11:15;101936.91;;;0.77;100.00
53889;BME280;41337;51.400;-2.342;2022-12-07T10:16:38;101918.72;;;0.87;100.00
53889;BME280;41337;51.400;-2.342;2022-12-07T10:21:40;101910.38;;;0.91;100.00
53889;BME280;41337;51.400;-2.342;2022-12-07T10:27:02;101893.34;;;1.22;100.00
53889;BME280;41337;51.400;-2.342;2022-12-07T10:37:29;101889.41;;;2.21;100.00
53889;BME280;41337;51.400;-2.342;2022-12-07T10:42:40;101902.28;;;2.54;100.00
53889;BME280;41337;51.400;-2.342;2022-12-07T10:48:09;101899.69;;;2.87;100.00
53889;BME280;41337;51.400;-2.342;2022-12-07T11:26:01;101892.38;;;4.79;100.00
53889;BME280;41337;51.400;-2.342;2022-12-07T11:42:25;101884.03;;;5.27;100.00
53889;BME280;41337;51.400;-2.342;2022-12-07T11:47:34;101865.38;;;5.34;100.00
53889;BME280;41337;51.400;-2.342;2022-12-07T11:52:44;101861.78;;;5.30;100.00
53889;BME280;41337;51.400;-2.342;2022-12-07T12:03:36;101855.88;;;5.33;100.00
53889;BME280;41337;51.400;-2.342;2022-12-07T12:09:12;101850.91;;;5.60;100.00
53889;BME280;41337;51.400;-2.342;2022-12-07T12:36:45;101835.53;;;4.99;100.00
53889;BME280;41337;51.400;-2.342;2022-12-07T12:41:54;101821.38;;;4.69;100.00
53889;BME280;41337;51.400;-2.342;2022-12-07T12:47:52;101823.28;;;4.54;100.00
53889;BME280;41337;51.400;-2.342;2022-12-07T12:53:03;101807.88;;;4.55;100.00
53889;BME280;41337;51.400;-2.342;2022-12-07T13:03:27;101793.34;;;4.57;100.00
53889;BME280;41337;51.400;-2.342;2022-12-07T13:08:30;101784.38;;;4.49;100.00
53889;BME280;41337;51.400;-2.342;2022-12-07T13:13:32;101787.31;;;4.57;100.00
53889;BME280;41337;51.400;-2.342;2022-12-07T13:18:49;101789.47;;;4.48;100.00
53889;BME280;41337;51.400;-2.342;2022-12-07T13:23:59;101775.19;;;4.35;100.00
53889;BME280;41337;51.400;-2.342;2022-12-07T13:29:17;101764.50;;;4.47;100.00
53889;BME280;41337;51.400;-2.342;2022-12-07T13:39:44;101738.25;;;4.16;100.00
53889;BME280;41337;51.400;-2.342;2022-12-07T13:44:46;101729.84;;;4.20;100.00
53889;BME280;41337;51.400;-2.342;2022-12-07T13:49:51;101715.88;;;4.15;100.00
53889;BME280;41337;51.400;-2.342;2022-12-07T14:00:16;101707.81;;;4.08;100.00
53889;BME280;41337;51.400;-2.342;2022-12-07T14:15:35;101686.91;;;4.01;100.00
53889;BME280;41337;51.400;-2.342;2022-12-07T14:20:40;101681.72;;;4.21;100.00
53889;BME280;41337;51.400;-2.342;2022-12-07T14:30:47;101668.16;;;3.84;100.00
53889;BME280;41337;51.400;-2.342;2022-12-07T14:35:47;101669.88;;;3.85;100.00
53889;BME280;41337;51.400;-2.342;2022-12-07T14:40:50;101668.88;;;3.82;100.00
53889;BME280;41337;51.400;-2.342;2022-12-07T14:45:52;101665.56;;;3.65;100.00
53889;BME280;41337;51.400;-2.342;2022-12-07T14:50:53;101671.81;;;3.70;100.00
53889;BME280;41337;51.400;-2.342;2022-12-07T14:55:54;101663.78;;;3.64;100.00
53889;BME280;41337;51.400;-2.342;2022-12-07T15:00:55;101661.09;;;3.61;100.00
53889;BME280;41337;51.400;-2.342;2022-12-07T15:05:56;101651.41;;;3.55;100.00
53889;BME280;41337;51.400;-2.342;2022-12-07T15:10:57;101656.13;;;3.46;100.00
53889;BME280;41337;51.400;-2.342;2022-12-07T15:15:57;101655.84;;;3.40;100.00
53889;BME280;41337;51.400;-2.342;2022-12-07T15:20:58;101649.22;;;3.25;100.00
53889;BME280;41337;51.400;-2.342;2022-12-07T15:25:59;101637.19;;;3.06;100.00
53889;BME280;41337;51.400;-2.342;2022-12-07T15:31:00;101634.78;;;2.91;100.00
53889;BME280;41337;51.400;-2.342;2022-12-07T15:36:01;101632.59;;;2.81;100.00
53889;BME280;41337;51.400;-2.342;2022-12-07T15:41:02;101622.72;;;2.72;100.00
53889;BME280;41337;51.400;-2.342;2022-12-07T15:46:09;101625.00;;;2.66;100.00
53889;BME280;41337;51.400;-2.342;2022-12-07T15:51:09;101623.63;;;2.55;100.00
53889;BME280;41337;51.400;-2.342;2022-12-07T15:56:10;101612.28;;;2.33;100.00
53889;BME280;41337;51.400;-2.342;2022-12-07T16:01:21;101618.66;;;2.06;100.00
53889;BME280;41337;51.400;-2.342;2022-12-07T16:06:22;101616.94;;;1.88;100.00
53889;BME280;41337;51.400;-2.342;2022-12-07T16:11:23;101602.44;;;1.72;100.00
53889;BME280;41337;51.400;-2.342;2022-12-07T16:16:24;101612.66;;;1.54;100.00
53889;BME280;41337;51.400;-2.342;2022-12-07T16:21:25;101605.81;;;1.38;100.00
53889;BME280;41337;51.400;-2.342;2022-12-07T16:26:26;101595.72;;;1.25;100.00
53889;BME280;41337;51.400;-2.342;2022-12-07T16:31:27;101597.41;;;1.08;100.00
53889;BME280;41337;51.400;-2.342;2022-12-07T16:36:28;101585.50;;;0.94;100.00
53889;BME280;41337;51.400;-2.342;2022-12-07T16:41:30;101585.66;;;0.80;100.00
53889;BME280;41337;51.400;-2.342;2022-12-07T16:46:35;101575.50;;;0.67;100.00
53889;BME280;41337;51.400;-2.342;2022-12-07T16:51:36;101578.38;;;0.57;100.00
53889;BME280;41337;51.400;-2.342;2022-12-07T16:56:37;101568.41;;;0.46;100.00
53889;BME280;41337;51.400;-2.342;2022-12-07T17:01:38;101557.63;;;0.37;100.00
53889;BME280;41337;51.400;-2.342;2022-12-07T17:06:39;101559.63;;;0.26;100.00
53889;BME280;41337;51.400;-2.342;2022-12-07T17:11:43;101557.22;;;0.14;100.00
53889;BME280;41337;51.400;-2.342;2022-12-07T17:16:48;101550.69;;;0.05;100.00
53889;BME280;41337;51.400;-2.342;2022-12-07T17:21:49;101550.88;;;-0.07;100.00
53889;BME280;41337;51.400;-2.342;2022-12-07T17:26:50;101531.44;;;-0.19;100.00
53889;BME280;41337;51.400;-2.342;2022-12-07T17:31:51;101521.66;;;-0.26;100.00
53889;BME280;41337;51.400;-2.342;2022-12-07T17:36:52;101525.66;;;-0.31;100.00
53889;BME280;41337;51.400;-2.342;2022-12-07T17:41:55;101525.00;;;-0.42;100.00
53889;BME280;41337;51.400;-2.342;2022-12-07T17:47:14;101521.13;;;-0.50;100.00
53889;BME280;41337;51.400;-2.342;2022-12-07T17:52:38;101513.88;;;-0.57;100.00
53889;BME280;41337;51.400;-2.342;2022-12-07T17:57:58;101509.19;;;-0.64;100.00
53889;BME280;41337;51.400;-2.342;2022-12-07T18:02:58;101502.81;;;-0.71;100.00
53889;BME280;41337;51.400;-2.342;2022-12-07T18:07:59;101514.38;;;-0.78;100.00
53889;BME280;41337;51.400;-2.342;2022-12-07T18:13:00;101510.75;;;-0.81;100.00
53889;BME280;41337;51.400;-2.342;2022-12-07T18:18:19;101508.78;;;-0.85;100.00
53889;BME280;41337;51.400;-2.342;2022-12-07T18:23:20;101499.28;;;-0.88;100.00
53889;BME280;41337;51.400;-2.342;2022-12-07T18:28:21;101495.56;;;-0.93;100.00
53889;BME280;41337;51.400;-2.342;2022-12-07T18:33:22;101495.38;;;-0.96;100.00
53889;BME280;41337;51.400;-2.342;2022-12-07T18:38:23;101482.13;;;-1.04;100.00
53889;BME280;41337;51.400;-2.342;2022-12-07T18:43:24;101480.00;;;-1.11;100.00
53889;BME280;41337;51.400;-2.342;2022-12-07T18:48:25;101483.94;;;-1.16;100.00
53889;BME280;41337;51.400;-2.342;2022-12-07T18:53:26;101483.69;;;-1.21;100.00
53889;BME280;41337;51.400;-2.342;2022-12-07T18:58:27;101476.69;;;-1.23;100.00
53889;BME280;41337;51.400;-2.342;2022-12-07T19:03:27;101479.06;;;-1.26;100.00
53889;BME280;41337;51.400;-2.342;2022-12-07T19:08:28;101469.34;;;-1.32;100.00
53889;BME280;41337;51.400;-2.342;2022-12-07T19:13:29;101476.34;;;-1.43;100.00
53889;BME280;41337;51.400;-2.342;2022-12-07T19:18:30;101468.91;;;-1.53;100.00
53889;BME280;41337;51.400;-2.342;2022-12-07T19:23:31;101455.19;;;-1.55;100.00
53889;BME280;41337;51.400;-2.342;2022-12-07T19:28:32;101451.63;;;-1.57;100.00
53889;BME280;41337;51.400;-2.342;2022-12-07T19:33:33;101448.88;;;-1.60;100.00
53889;BME280;41337;51.400;-2.342;2022-12-07T19:38:34;101451.94;;;-1.66;100.00
53889;BME280;41337;51.400;-2.342;2022-12-07T19:43:35;101446.44;;;-1.72;100.00
53889;BME280;41337;51.400;-2.342;2022-12-07T19:48:36;101446.78;;;-1.81;100.00
53889;BME280;41337;51.400;-2.342;2022-12-07T19:53:37;101443.81;;;-1.87;100.00
53889;BME280;41337;51.400;-2.342;2022-12-07T19:58:38;101442.84;;;-1.89;100.00
53889;BME280;41337;51.400;-2.342;2022-12-07T20:03:39;101435.66;;;-1.95;100.00
53889;BME280;41337;51.400;-2.342;2022-12-07T20:08:40;101434.50;;;-2.00;100.00
53889;BME280;41337;51.400;-2.342;2022-12-07T20:13:47;101410.94;;;-1.96;100.00
53889;BME280;41337;51.400;-2.342;2022-12-07T20:18:48;101407.25;;;-1.73;100.00
53889;BME280;41337;51.400;-2.342;2022-12-07T20:23:49;101394.72;;;-1.55;100.00
53889;BME280;41337;51.400;-2.342;2022-12-07T20:28:50;101397.88;;;-1.31;100.00
53889;BME280;41337;51.400;-2.342;2022-12-07T20:33:51;101410.50;;;-1.19;100.00
53889;BME280;41337;51.400;-2.342;2022-12-07T20:38:52;101400.47;;;-1.01;100.00
53889;BME280;41337;51.400;-2.342;2022-12-07T20:43:53;101417.41;;;-1.03;100.00
53889;BME280;41337;51.400;-2.342;2022-12-07T20:49:00;101398.09;;;-0.98;100.00
53889;BME280;41337;51.400;-2.342;2022-12-07T20:54:01;101399.94;;;-0.95;100.00
53889;BME280;41337;51.400;-2.342;2022-12-07T20:59:04;101405.03;;;-0.95;100.00
53889;BME280;41337;51.400;-2.342;2022-12-07T21:04:05;101404.94;;;-0.97;100.00
53889;BME280;41337;51.400;-2.342;2022-12-07T21:09:08;101396.03;;;-0.88;100.00
53889;BME280;41337;51.400;-2.342;2022-12-07T21:14:12;101395.53;;;-0.83;100.00
53889;BME280;41337;51.400;-2.342;2022-12-07T21:19:16;101397.63;;;-0.90;100.00
53889;BME280;41337;51.400;-2.342;2022-12-07T21:24:16;101391.19;;;-0.99;100.00
53889;BME280;41337;51.400;-2.342;2022-12-07T21:29:17;101387.41;;;-1.05;100.00
53889;BME280;41337;51.400;-2.342;2022-12-07T21:34:18;101383.53;;;-0.99;100.00
53889;BME280;41337;51.400;-2.342;2022-12-07T21:39:19;101382.66;;;-0.99;100.00
53889;BME280;41337;51.400;-2.342;2022-12-07T21:44:20;101384.38;;;-1.13;100.00
53889;BME280;41337;51.400;-2.342;2022-12-07T21:49:21;101377.84;;;-1.23;100.00
53889;BME280;41337;51.400;-2.342;2022-12-07T21:54:22;101377.75;;;-1.24;100.00
53889;BME280;41337;51.400;-2.342;2022-12-07T21:59:23;101367.19;;;-1.31;100.00
53889;BME280;41337;51.400;-2.342;2022-12-07T22:04:25;101362.94;;;-1.30;100.00
53889;BME280;41337;51.400;-2.342;2022-12-07T22:09:41;101347.34;;;-1.35;100.00
53889;BME280;41337;51.400;-2.342;2022-12-07T22:14:42;101352.72;;;-1.45;100.00
53889;BME280;41337;51.400;-2.342;2022-12-07T22:20:02;101350.63;;;-1.66;100.00
53889;BME280;41337;51.400;-2.342;2022-12-07T22:25:11;101351.28;;;-1.83;100.00
53889;BME280;41337;51.400;-2.342;2022-12-07T22:30:12;101340.31;;;-1.95;100.00
53889;BME280;41337;51.400;-2.342;2022-12-07T22:35:13;101340.56;;;-2.19;100.00
53889;BME280;41337;51.400;-2.342;2022-12-07T22:40:14;101329.06;;;-2.26;100.00
53889;BME280;41337;51.400;-2.342;2022-12-07T22:45:15;101335.59;;;-2.44;100.00
53889;BME280;41337;51.400;-2.342;2022-12-07T22:50:23;101326.38;;;-2.55;100.00
53889;BME280;41337;51.400;-2.342;2022-12-07T22:55:24;101313.16;;;-2.63;100.00
53889;BME280;41337;51.400;-2.342;2022-12-07T23:00:25;101309.03;;;-2.61;100.00
53889;BME280;41337;51.400;-2.342;2022-12-07T23:05:26;101305.88;;;-2.70;100.00
53889;BME280;41337;51.400;-2.342;2022-12-07T23:10:27;101306.28;;;-2.78;100.00
53889;BME280;41337;51.400;-2.342;2022-12-07T23:15:28;101288.53;;;-2.76;100.00
53889;BME280;41337;51.400;-2.342;2022-12-07T23:20:29;101276.25;;;-2.82;100.00
53889;BME280;41337;51.400;-2.342;2022-12-07T23:25:31;101273.50;;;-2.85;100.00
53889;BME280;41337;51.400;-2.342;2022-12-07T23:30:38;101268.81;;;-2.92;100.00
53889;BME280;41337;51.400;-2.342;2022-12-07T23:35:39;101260.75;;;-2.98;100.00
53889;BME280;41337;51.400;-2.342;2022-12-07T23:40:40;101257.25;;;-3.00;100.00
53889;BME280;41337;51.400;-2.342;2022-12-07T23:45:50;101256.38;;;-3.01;100.00
53889;BME280;41337;51.400;-2.342;2022-12-07T23:50:50;101253.41;;;-3.07;100.00
53889;BME280;41337;51.400;-2.342;2022-12-07T23:55:51;101247.16;;;-3.12;100.00
